Time;durP1;ratioP1;P1;durP2;ratioP2;P2;SDS_P1;SDS_P2;PMS_P1;PMS_P2;Temp;Humidity;BMP_temperature;BMP_pressure;BME280_temperature;BME280_humidity;BME280_pressure;Samples;Min_cycle;Max_cycle;Signal;HPM_P1;HPM_P2
2021/01/06 00:02:33;;;;;;;2.03;1.40;;;20.30;41.60;;;;;;6273664;28;20020;-60
2021/01/06 00:05:34;;;;;;;2.35;1.33;;;20.30;41.60;;;;;;6268839;28;20477;-58
2021/01/06 00:08:34;;;;;;;2.20;1.60;;;20.30;41.60;;;;;;6257813;28;20028;-54
2021/01/06 00:11:37;;;;;;;2.17;1.42;;;20.30;41.60;;;;;;6277432;28;20111;-57
2021/01/06 00:14:37;;;;;;;1.88;1.33;;;20.30;41.80;;;;;;6275939;28;20024;-60
2021/01/06 00:17:38;;;;;;;1.75;1.30;;;20.30;41.70;;;;;;6277173;28;20058;-57
2021/01/06 00:20:39;;;;;;;1.83;1.42;;;20.30;41.70;;;;;;6276564;28;20111;-58
2021/01/06 00:23:39;;;;;;;1.63;1.48;;;20.30;41.80;;;;;;6275637;28;20074;-56
2021/01/06 00:26:40;;;;;;;1.63;1.10;;;20.30;41.80;;;;;;6274177;28;20029;-58
2021/01/06 00:29:40;;;;;;;1.90;1.55;;;20.30;41.80;;;;;;6276203;28;20374;-57
2021/01/06 00:32:41;;;;;;;2.05;1.48;;;20.30;42.40;;;;;;6270254;28;20429;-55
2021/01/06 00:35:41;;;;;;;1.65;1.30;;;20.30;41.80;;;;;;6259373;28;20067;-55
2021/01/06 00:38:42;;;;;;;1.77;1.40;;;20.30;41.80;;;;;;6268475;28;20021;-57
2021/01/06 00:41:42;;;;;;;2.30;1.52;;;20.20;41.80;;;;;;6268165;28;20425;-60
2021/01/06 00:44:43;;;;;;;1.48;1.20;;;20.20;41.80;;;;;;6260626;28;20611;-55
2021/01/06 00:47:44;;;;;;;2.17;1.40;;;20.20;41.80;;;;;;6276353;28;20024;-57
2021/01/06 00:50:44;;;;;;;1.58;1.20;;;20.20;41.80;;;;;;6267051;28;20383;-54
2021/01/06 00:53:45;;;;;;;1.38;1.13;;;20.20;41.90;;;;;;6266409;28;20016;-60
2021/01/06 00:56:45;;;;;;;1.17;1.08;;;20.20;41.90;;;;;;6265870;28;20031;-59
2021/01/06 00:59:46;;;;;;;1.73;1.40;;;20.20;41.90;;;;;;6271838;28;20745;-59
2021/01/06 01:02:50;;;;;;;2.20;1.60;;;20.20;41.90;;;;;;6271653;28;20127;-58
2021/01/06 01:05:51;;;;;;;2.40;1.60;;;20.20;41.90;;;;;;6275584;28;20048;-59
2021/01/06 01:08:51;;;;;;;1.85;1.45;;;20.20;41.90;;;;;;6275554;28;20543;-57
2021/01/06 01:11:52;;;;;;;1.48;1.05;;;20.20;42.00;;;;;;6274689;28;20093;-58
2021/01/06 01:14:53;;;;;;;1.50;1.02;;;20.20;42.00;;;;;;6291563;28;20016;-59
2021/01/06 01:17:53;;;;;;;2.25;1.25;;;20.20;41.90;;;;;;6275396;28;20036;-58
2021/01/06 01:20:58;;;;;;;1.30;1.08;;;20.20;41.90;;;;;;6275305;28;20416;-57
2021/01/06 01:23:59;;;;;;;1.27;1.10;;;20.20;41.90;;;;;;6275165;28;20183;-59
2021/01/06 01:26:59;;;;;;;2.78;1.20;;;20.20;41.90;;;;;;6264029;28;20494;-56
2021/01/06 01:30:00;;;;;;;1.55;1.23;;;20.20;42.10;;;;;;6269229;28;20079;-58
2021/01/06 01:33:00;;;;;;;2.03;1.23;;;20.20;42.00;;;;;;6275594;28;20017;-58
2021/01/06 01:36:01;;;;;;;1.30;1.10;;;20.10;41.90;;;;;;6274928;28;20734;-58
2021/01/06 01:39:02;;;;;;;1.60;1.10;;;20.20;42.00;;;;;;6274995;28;20024;-60
2021/01/06 01:42:02;;;;;;;1.88;1.30;;;20.10;42.10;;;;;;6266662;28;20056;-58
2021/01/06 01:45:05;;;;;;;1.75;1.30;;;20.10;42.00;;;;;;6274678;28;20036;-59
2021/01/06 01:48:18;;;;;;;1.73;1.20;;;20.10;42.00;;;;;;6275038;28;20024;-54
2021/01/06 01:51:22;;;;;;;2.63;1.27;;;20.10;42.00;;;;;;6267055;28;20025;-60
2021/01/06 01:54:26;;;;;;;1.60;1.23;;;20.10;42.00;;;;;;6274414;28;20115;-60
2021/01/06 01:57:32;;;;;;;1.90;1.27;;;20.10;42.10;;;;;;6274514;28;20536;-54
2021/01/06 02:00:36;;;;;;;2.15;1.20;;;20.10;42.10;;;;;;6274710;28;20052;-55
2021/01/06 02:03:52;;;;;;;3.13;1.10;;;20.10;42.00;;;;;;6277489;28;20024;-55
2021/01/06 02:06:56;;;;;;;;;;;20.10;42.10;;;;;;6255522;28;20028;-57
2021/01/06 02:09:57;;;;;;;1.17;0.93;;;20.10;42.10;;;;;;6274474;28;19948;-61
2021/01/06 02:13:19;;;;;;;1.48;1.10;;;20.10;42.10;;;;;;6267834;28;20416;-58
2021/01/06 02:16:37;;;;;;;1.30;1.10;;;20.10;42.10;;;;;;6256900;28;20097;-54
2021/01/06 02:19:41;;;;;;;1.38;1.00;;;20.10;42.10;;;;;;6274409;28;20488;-57
2021/01/06 02:22:42;;;;;;;1.75;1.10;;;20.10;42.10;;;;;;6272417;28;20028;-56
2021/01/06 02:25:42;;;;;;;1.65;1.10;;;20.10;42.10;;;;;;6274508;28;20653;-57
2021/01/06 02:28:44;;;;;;;1.33;1.05;;;20.10;42.10;;;;;;6273796;28;20072;-56
2021/01/06 02:31:45;;;;;;;1.05;0.90;;;20.10;42.20;;;;;;6273425;28;20040;-59
2021/01/06 02:34:46;;;;;;;1.42;1.00;;;20.10;42.10;;;;;;6273729;28;20029;-60
2021/01/06 02:37:48;;;;;;;1.38;1.10;;;20.10;42.20;;;;;;6266123;28;20397;-57
2021/01/06 02:40:54;;;;;;;1.30;1.10;;;20.10;42.10;;;;;;6282690;28;20025;-58
2021/01/06 02:43:55;;;;;;;1.50;1.00;;;20.00;42.10;;;;;;6273931;28;20021;-57
2021/01/06 02:46:56;;;;;;;1.63;0.88;;;20.10;42.10;;;;;;6274034;28;20109;-55
2021/01/06 02:49:57;;;;;;;1.15;1.02;;;20.10;42.10;;;;;;6274006;28;20112;-56
2021/01/06 02:53:08;;;;;;;1.35;1.20;;;20.10;42.20;;;;;;6273587;28;20055;-55
2021/01/06 02:56:09;;;;;;;1.15;0.98;;;20.00;42.10;;;;;;6265482;28;20389;-55
2021/01/06 02:59:13;;;;;;;1.73;1.10;;;20.00;42.10;;;;;;6280639;28;20082;-60
2021/01/06 03:02:21;;;;;;;1.10;1.00;;;20.00;42.10;;;;;;6272233;28;20028;-59
2021/01/06 03:05:31;;;;;;;0.93;0.80;;;20.00;42.10;;;;;;6273812;28;20469;-58
2021/01/06 03:08:33;;;;;;;0.88;0.80;;;20.00;42.10;;;;;;6266005;28;20113;-57
2021/01/06 03:11:34;;;;;;;1.20;0.80;;;20.00;42.10;;;;;;6273712;28;20397;-59
2021/01/06 03:14:36;;;;;;;1.23;1.02;;;20.00;42.10;;;;;;6252393;28;20051;-58
2021/01/06 03:17:36;;;;;;;1.35;1.02;;;20.00;42.90;;;;;;6256555;28;20021;-55
2021/01/06 03:20:44;;;;;;;1.17;1.00;;;20.00;42.10;;;;;;6273481;28;20089;-57
2021/01/06 03:23:51;;;;;;;1.55;1.20;;;20.00;42.20;;;;;;6264946;28;20024;-60
2021/01/06 03:26:54;;;;;;;0.88;0.82;;;20.00;42.30;;;;;;6270436;28;20036;-58
2021/01/06 03:29:59;;;;;;;0.88;0.80;;;20.00;42.20;;;;;;6295087;28;20031;-55
2021/01/06 03:33:24;;;;;;;0.80;0.80;;;20.00;42.20;;;;;;6277477;28;20388;-57
2021/01/06 03:36:28;;;;;;;0.95;0.90;;;20.00;42.20;;;;;;6277389;28;20461;-59
2021/01/06 03:39:34;;;;;;;1.08;0.80;;;20.00;42.30;;;;;;6269521;28;20056;-55
2021/01/06 03:42:35;;;;;;;0.70;0.65;;;20.00;42.20;;;;;;6273176;28;20051;-53
2021/01/06 03:45:40;;;;;;;1.10;0.90;;;20.00;42.20;;;;;;6277981;28;20048;-56
2021/01/06 03:48:49;;;;;;;1.98;0.90;;;20.00;42.30;;;;;;6277685;28;20029;-58
2021/01/06 03:51:58;;;;;;;0.80;0.80;;;20.00;42.40;;;;;;6277227;28;20757;-60
2021/01/06 03:55:20;;;;;;;1.10;0.80;;;20.00;42.30;;;;;;6291569;28;20499;-53
2021/01/06 03:58:36;;;;;;;1.60;1.00;;;20.00;42.30;;;;;;6277211;28;20032;-58
2021/01/06 04:02:09;;;;;;;1.25;1.00;;;19.90;42.30;;;;;;6277287;28;20028;-59
2021/01/06 04:05:15;;;;;;;1.08;0.80;;;19.90;42.30;;;;;;6284306;28;20025;-56
2021/01/06 04:08:25;;;;;;;0.77;0.77;;;19.90;42.40;;;;;;6276982;28;20020;-54
2021/01/06 04:11:35;;;;;;;0.98;0.88;;;20.00;42.40;;;;;;6277265;28;20031;-55
2021/01/06 04:14:36;;;;;;;0.80;0.73;;;19.90;42.30;;;;;;6275012;28;20028;-57
2021/01/06 04:17:44;;;;;;;0.70;0.60;;;19.90;42.40;;;;;;6276469;28;20078;-57
2021/01/06 04:20:44;;;;;;;1.10;0.90;;;19.90;42.40;;;;;;6276599;28;20122;-55
2021/01/06 04:23:45;;;;;;;0.70;0.70;;;19.90;42.40;;;;;;6276056;28;20107;-57
2021/01/06 04:26:45;;;;;;;0.75;0.70;;;19.90;42.40;;;;;;6276033;28;20111;-56
2021/01/06 04:29:46;;;;;;;0.73;0.70;;;19.90;42.40;;;;;;6276526;28;20521;-53
2021/01/06 04:32:47;;;;;;;1.75;0.90;;;20.00;42.50;;;;;;6276495;28;20029;-58
2021/01/06 04:35:48;;;;;;;0.82;0.80;;;19.90;42.50;;;;;;6276421;28;20108;-57
2021/01/06 04:38:52;;;;;;;1.13;0.80;;;19.90;42.40;;;;;;6275667;28;20024;-58
2021/01/06 04:42:01;;;;;;;0.70;0.60;;;19.90;42.40;;;;;;6276325;28;20055;-57
2021/01/06 04:45:06;;;;;;;0.90;0.80;;;19.90;42.40;;;;;;6276408;28;20020;-57
2021/01/06 04:48:31;;;;;;;;;;;19.90;42.40;;;;;;6277085;28;20082;-57
2021/01/06 04:51:59;;;;;;;1.10;0.70;;;19.90;42.40;;;;;;6294042;28;19949;-56
2021/01/06 04:55:44;;;;;;;0.80;0.70;;;19.90;42.50;;;;;;6275510;28;20033;-58
2021/01/06 04:59:16;;;;;;;1.00;0.77;;;19.90;42.50;;;;;;6260758;28;20067;-59
2021/01/06 05:02:48;;;;;;;0.82;0.68;;;19.90;42.50;;;;;;6293586;28;20056;-60
2021/01/06 05:06:10;;;;;;;2.80;0.75;;;19.90;42.40;;;;;;6275820;28;20388;-58
2021/01/06 05:09:20;;;;;;;0.77;0.77;;;19.90;42.40;;;;;;6293502;28;20017;-58
2021/01/06 05:12:34;;;;;;;0.82;0.60;;;19.90;42.40;;;;;;6275619;28;20505;-59
2021/01/06 05:15:48;;;;;;;0.65;0.60;;;19.90;42.40;;;;;;6275330;28;20017;-58
2021/01/06 05:18:49;;;;;;;0.70;0.70;;;20.00;42.60;;;;;;6275512;28;20025;-57
2021/01/06 05:21:51;;;;;;;1.00;0.80;;;20.00;42.50;;;;;;6267076;28;20040;-59
2021/01/06 05:24:51;;;;;;;3.58;0.57;;;20.00;42.60;;;;;;6289746;28;20103;-59
2021/01/06 05:27:52;;;;;;;0.75;0.75;;;20.10;42.60;;;;;;6274849;28;20433;-55
2021/01/06 05:30:56;;;;;;;0.55;0.55;;;20.00;42.50;;;;;;6266978;28;20602;-61
2021/01/06 05:33:57;;;;;;;0.90;0.70;;;20.10;42.60;;;;;;6267156;28;20025;-52
2021/01/06 05:36:57;;;;;;;0.73;0.60;;;20.10;42.70;;;;;;6283438;28;20032;-59
2021/01/06 05:40:04;;;;;;;0.80;0.70;;;20.10;42.70;;;;;;6274949;28;20020;-58
2021/01/06 05:43:26;;;;;;;0.80;0.75;;;20.10;42.70;;;;;;6274945;28;20028;-55
2021/01/06 05:46:31;;;;;;;0.90;0.70;;;20.10;42.70;;;;;;6255686;28;20021;-59
2021/01/06 05:49:32;;;;;;;1.20;0.60;;;20.10;42.70;;;;;;6267007;28;20021;-53
2021/01/06 05:52:34;;;;;;;0.65;0.60;;;20.10;42.80;;;;;;6266338;28;20040;-57
2021/01/06 05:55:36;;;;;;;0.60;0.60;;;20.10;42.80;;;;;;6273348;28;20024;-56
2021/01/06 05:58:47;;;;;;;0.63;0.52;;;20.10;42.80;;;;;;6274535;28;20028;-56
2021/01/06 06:02:07;;;;;;;0.95;0.70;;;20.10;42.90;;;;;;6274441;28;20549;-60
2021/01/06 06:05:45;;;;;;;0.85;0.75;;;20.10;42.90;;;;;;6274560;28;20138;-54
2021/01/06 06:08:55;;;;;;;0.65;0.65;;;20.10;43.00;;;;;;6274369;28;20089;-58
2021/01/06 06:12:28;;;;;;;0.95;0.75;;;20.20;42.60;;;;;;6274279;28;20028;-59
2021/01/06 06:16:26;;;;;;;1.17;0.73;;;20.30;42.40;;;;;;6271058;28;20505;-58
2021/01/06 06:19:47;;;;;;;0.70;0.60;;;20.50;42.50;;;;;;6249510;28;20041;-60
2021/01/06 06:22:58;;;;;;;0.90;0.80;;;20.50;42.50;;;;;;6271239;28;20052;-60
2021/01/06 06:26:34;;;;;;;0.88;0.57;;;20.60;42.60;;;;;;6274477;28;20409;-55
2021/01/06 06:30:02;;;;;;;0.77;0.77;;;20.70;42.70;;;;;;6274090;28;20052;-60
2021/01/06 06:33:33;;;;;;;0.70;0.63;;;20.70;42.60;;;;;;6274280;28;20067;-55
2021/01/06 06:36:39;;;;;;;0.65;0.60;;;20.80;42.60;;;;;;6273567;28;20408;-55
2021/01/06 06:39:43;;;;;;;0.60;0.60;;;20.80;42.50;;;;;;6274390;28;20221;-56
2021/01/06 06:43:05;;;;;;;0.65;0.60;;;20.80;42.50;;;;;;6273813;28;20024;-58
2021/01/06 06:46:15;;;;;;;0.90;0.80;;;20.90;42.50;;;;;;6292047;28;20107;-59
2021/01/06 06:49:30;;;;;;;0.80;0.60;;;20.90;42.50;;;;;;6291900;28;20058;-54
2021/01/06 06:52:47;;;;;;;0.82;0.77;;;21.00;42.50;;;;;;6273858;28;20031;-60
2021/01/06 06:56:20;;;;;;;0.73;0.60;;;20.90;42.50;;;;;;6274090;28;20028;-56
2021/01/06 06:59:33;;;;;;;0.77;0.70;;;20.90;42.50;;;;;;6270385;28;20059;-57
2021/01/06 07:02:47;;;;;;;0.60;0.60;;;21.00;42.50;;;;;;6286285;28;20501;-57
2021/01/06 07:05:56;;;;;;;0.73;0.55;;;21.00;42.60;;;;;;6279829;28;20028;-60
2021/01/06 07:08:59;;;;;;;0.50;0.50;;;21.00;42.60;;;;;;6280363;28;20059;-54
2021/01/06 07:12:10;;;;;;;0.50;0.50;;;21.10;42.60;;;;;;6279490;28;20058;-55
2021/01/06 07:16:00;;;;;;;0.65;0.60;;;21.00;42.60;;;;;;6279662;28;20021;-55
2021/01/06 07:20:07;;;;;;;0.80;0.80;;;21.10;42.70;;;;;;6273491;28;20382;-58
2021/01/06 07:23:18;;;;;;;0.60;0.60;;;21.10;42.80;;;;;;6201728;28;20044;-56
2021/01/06 07:26:31;;;;;;;0.77;0.60;;;21.10;42.80;;;;;;6233306;28;20031;-55
2021/01/06 07:29:45;;;;;;;0.52;0.52;;;21.10;42.70;;;;;;6279440;28;20032;-56
2021/01/06 07:32:46;;;;;;;0.45;0.45;;;21.10;42.70;;;;;;6279582;28;20074;-54
2021/01/06 07:35:47;;;;;;;0.77;0.68;;;21.10;42.60;;;;;;6279315;28;20028;-57
2021/01/06 07:38:50;;;;;;;0.70;0.70;;;21.10;42.80;;;;;;6261710;28;20039;-57
2021/01/06 07:41:52;;;;;;;0.45;0.40;;;21.10;42.80;;;;;;6254415;28;20535;-57
2021/01/06 07:45:13;;;;;;;0.40;0.40;;;21.10;42.90;;;;;;6279643;28;20032;-54
2021/01/06 07:48:17;;;;;;;12.70;0.65;;;21.10;42.90;;;;;;6278749;28;20081;-61
2021/01/06 07:51:22;;;;;;;8.27;0.70;;;20.90;41.30;;;;;;6279794;28;20029;-63
2021/01/06 07:54:56;;;;;;;2.22;0.80;;;20.90;42.10;;;;;;6270803;28;20414;-60
2021/01/06 07:58:05;;;;;;;12.52;1.25;;;21.00;41.00;;;;;;6278047;28;20048;-61
2021/01/06 08:01:31;;;;;;;4.63;1.10;;;20.90;39.70;;;;;;6279419;28;20106;-56
2021/01/06 08:04:56;;;;;;;18.27;1.92;;;20.60;40.80;;;;;;6273499;28;20184;-53
2021/01/06 08:08:13;;;;;;;21.77;1.77;;;20.80;40.30;;;;;;6286630;28;20111;-62
2021/01/06 08:11:17;;;;;;;15.80;1.52;;;21.00;40.60;;;;;;6270031;28;20029;-63
2021/01/06 08:14:23;;;;;;;9.65;0.93;;;21.10;40.90;;;;;;6292881;28;20028;-60
2021/01/06 08:17:30;;;;;;;6.68;1.00;;;21.10;41.10;;;;;;6269536;28;20394;-62
2021/01/06 08:20:45;;;;;;;4.30;0.88;;;21.20;40.20;;;;;;6270013;28;20029;-62
2021/01/06 08:24:19;;;;;;;9.73;1.23;;;21.20;40.10;;;;;;6277215;28;20023;-63
2021/01/06 08:27:35;;;;;;;8.98;1.27;;;21.20;40.30;;;;;;6276884;28;20036;-62
2021/01/06 08:30:36;;;;;;;7.75;1.25;;;21.30;41.70;;;;;;6277545;28;20533;-66
2021/01/06 08:33:58;;;;;;;5.03;1.00;;;21.30;41.00;;;;;;6276841;28;20046;-63
2021/01/06 08:37:06;;;;;;;5.88;1.65;;;21.00;40.20;;;;;;6277261;28;20119;-60
2021/01/06 08:40:25;;;;;;;9.63;1.50;;;20.80;36.70;;;;;;6277416;28;20045;-69
2021/01/06 08:43:36;;;;;;;6.65;1.50;;;20.50;36.70;;;;;;6276664;28;20529;-64
2021/01/06 08:46:40;;;;;;;7.28;1.30;;;20.80;39.00;;;;;;6277585;28;20099;-69
2021/01/06 08:49:44;;;;;;;7.80;1.55;;;21.00;39.80;;;;;;6278893;28;20025;-67
2021/01/06 08:52:53;;;;;;;12.77;1.38;;;21.10;38.50;;;;;;6269981;28;20440;-66
2021/01/06 08:55:58;;;;;;;8.25;1.20;;;21.20;38.80;;;;;;6266340;28;20387;-67
2021/01/06 08:58:58;;;;;;;3.25;0.95;;;21.20;39.60;;;;;;6282733;28;20047;-66
2021/01/06 09:02:01;;;;;;;2.22;1.05;;;21.30;39.40;;;;;;6292969;28;20048;-66
2021/01/06 09:05:02;;;;;;;3.38;1.20;;;21.30;39.80;;;;;;6279547;28;20536;-67
2021/01/06 09:08:42;;;;;;;2.17;1.15;;;21.40;40.00;;;;;;6293162;28;20028;-69
2021/01/06 09:11:51;;;;;;;3.97;1.40;;;21.40;40.10;;;;;;6254847;28;20032;-69
2021/01/06 09:14:53;;;;;;;6.05;1.13;;;21.50;40.60;;;;;;6267973;28;20027;-70
2021/01/06 09:18:03;;;;;;;10.55;0.95;;;21.50;41.20;;;;;;6275889;28;20029;-63
2021/01/06 09:21:25;;;;;;;4.63;0.90;;;21.50;41.80;;;;;;6274070;28;20027;-62
2021/01/06 09:24:34;;;;;;;4.43;1.00;;;21.50;41.20;;;;;;6250427;28;20425;-62
2021/01/06 09:27:39;;;;;;;13.40;1.42;;;21.50;41.20;;;;;;6267497;28;20078;-63
2021/01/06 09:30:42;;;;;;;9.65;1.05;;;21.60;41.70;;;;;;6275674;28;20029;-62
2021/01/06 09:33:44;;;;;;;6.15;1.10;;;21.60;41.30;;;;;;6276198;28;20028;-64
2021/01/06 09:36:47;;;;;;;9.13;1.10;;;21.70;42.00;;;;;;6275898;28;20033;-63
2021/01/06 09:39:49;;;;;;;10.00;1.05;;;21.60;41.80;;;;;;6275791;28;20016;-63
2021/01/06 09:43:31;;;;;;;10.75;1.10;;;21.60;41.90;;;;;;6275257;28;20078;-63
2021/01/06 09:46:50;;;;;;;34.92;2.03;;;21.10;37.40;;;;;;6275860;28;20485;-63
2021/01/06 09:49:56;;;;;;;44.80;2.53;;;20.80;35.00;;;;;;6275811;28;20474;-63
2021/01/06 09:53:00;;;;;;;59.95;4.15;;;20.60;34.30;;;;;;6275248;28;20020;-63
2021/01/06 09:56:01;;;;;;;58.20;3.80;;;20.50;34.00;;;;;;6261504;28;20021;-62
2021/01/06 09:59:04;;;;;;;17.42;1.70;;;20.40;33.60;;;;;;6250652;28;20398;-62
2021/01/06 10:02:18;;;;;;;26.05;4.68;;;20.40;34.20;;;;;;6264787;28;20029;-65
2021/01/06 10:05:52;;;;;;;21.75;3.88;;;20.70;37.40;;;;;;6257446;28;20024;-66
2021/01/06 10:09:04;;;;;;;19.45;3.60;;;21.00;38.50;;;;;;6275574;28;20039;-64
2021/01/06 10:12:42;;;;;;;15.55;3.75;;;21.10;38.70;;;;;;6274042;28;20035;-61
2021/01/06 10:15:55;;;;;;;21.77;4.15;;;21.10;38.40;;;;;;6275015;28;20040;-61
2021/01/06 10:19:28;;;;;;;17.10;4.13;;;21.10;38.10;;;;;;6275246;28;20024;-60
2021/01/06 10:22:48;;;;;;;16.05;3.40;;;21.20;39.00;;;;;;6249158;28;20512;-58
2021/01/06 10:26:09;;;;;;;15.68;2.40;;;21.20;38.10;;;;;;6258697;28;20024;-57
2021/01/06 10:29:15;;;;;;;12.52;2.65;;;21.00;38.20;;;;;;6292177;28;20514;-58
2021/01/06 10:32:15;;;;;;;5.65;2.03;;;21.10;37.90;;;;;;6279289;28;20017;-59
2021/01/06 10:35:26;;;;;;;11.10;2.65;;;21.20;38.50;;;;;;6276430;28;21212;-61
2021/01/06 10:38:27;;;;;;;7.07;2.22;;;21.30;37.80;;;;;;6280102;28;20509;-59
2021/01/06 10:41:34;;;;;;;6.40;2.00;;;21.30;38.40;;;;;;6271401;28;20025;-57
2021/01/06 10:44:48;;;;;;;8.50;2.47;;;21.30;37.90;;;;;;6279059;28;20504;-59
2021/01/06 10:47:50;;;;;;;7.10;1.90;;;21.40;38.20;;;;;;6293092;28;20040;-60
2021/01/06 10:50:51;;;;;;;5.90;2.08;;;21.40;38.60;;;;;;6294745;28;20032;-60
2021/01/06 10:53:52;;;;;;;4.15;1.80;;;21.40;38.60;;;;;;6266573;28;20021;-59
2021/01/06 10:56:52;;;;;;;8.80;2.00;;;21.40;39.30;;;;;;6267891;28;20028;-60
2021/01/06 11:00:12;;;;;;;5.07;1.85;;;21.40;39.40;;;;;;6281903;28;20384;-57
2021/01/06 11:03:21;;;;;;;6.07;1.92;;;21.50;39.40;;;;;;6278809;28;20654;-61
2021/01/06 11:06:30;;;;;;;4.63;1.60;;;21.50;39.50;;;;;;6277448;28;20051;-59
2021/01/06 11:09:30;;;;;;;5.68;1.70;;;21.50;39.60;;;;;;6279467;28;20027;-60
2021/01/06 11:12:40;;;;;;;4.25;1.63;;;21.50;39.90;;;;;;6270175;28;20389;-62
2021/01/06 11:15:49;;;;;;;4.72;1.60;;;21.50;40.30;;;;;;6273398;28;20102;-60
2021/01/06 11:18:52;;;;;;;4.95;1.50;;;21.50;40.00;;;;;;6254743;28;20033;-60
2021/01/06 11:22:04;;;;;;;4.95;1.60;;;21.50;40.30;;;;;;6273339;28;20021;-59
2021/01/06 11:25:48;;;;;;;5.13;1.77;;;21.50;40.30;;;;;;6279763;28;20020;-60
2021/01/06 11:29:10;;;;;;;4.68;1.60;;;21.50;40.00;;;;;;6275982;28;20032;-59
2021/01/06 11:32:21;;;;;;;4.00;1.50;;;21.50;40.50;;;;;;6270735;28;20089;-58
2021/01/06 11:35:29;;;;;;;3.90;1.58;;;21.50;40.40;;;;;;6277572;28;20070;-61
2021/01/06 11:38:33;;;;;;;3.85;1.50;;;21.50;40.30;;;;;;6276380;28;20025;-61
2021/01/06 11:41:33;;;;;;;8.60;1.75;;;21.60;40.20;;;;;;6276860;28;20107;-61
2021/01/06 11:45:05;;;;;;;4.82;1.50;;;21.60;40.20;;;;;;6276015;28;20020;-57
2021/01/06 11:48:25;;;;;;;4.78;1.50;;;21.60;40.60;;;;;;6283521;28;20085;-58
2021/01/06 11:51:25;;;;;;;7.25;1.40;;;21.60;40.70;;;;;;6291627;28;20143;-61
2021/01/06 11:54:29;;;;;;;3.45;1.30;;;21.60;40.60;;;;;;6268357;28;20484;-59
2021/01/06 11:57:38;;;;;;;6.88;1.20;;;21.60;40.90;;;;;;6289252;28;20052;-60
2021/01/06 12:00:42;;;;;;;5.40;1.50;;;21.60;40.60;;;;;;6276380;28;20016;-60
2021/01/06 12:04:05;;;;;;;14.70;1.98;;;21.60;41.10;;;;;;6276099;28;20016;-62
2021/01/06 12:07:30;;;;;;;3.05;1.13;;;21.60;41.20;;;;;;6256057;28;20078;-58
2021/01/06 12:10:37;;;;;;;8.85;1.40;;;21.50;41.00;;;;;;6275994;28;20028;-62
2021/01/06 12:14:15;;;;;;;4.43;1.17;;;21.40;41.20;;;;;;6274517;28;20476;-57
2021/01/06 12:17:24;;;;;;;6.57;1.38;;;21.40;41.40;;;;;;6277261;28;20147;-59
2021/01/06 12:20:35;;;;;;;3.60;1.20;;;21.40;41.50;;;;;;6276947;28;20481;-59
2021/01/06 12:23:42;;;;;;;2.20;1.02;;;21.30;41.60;;;;;;6276064;28;20054;-58
2021/01/06 12:26:45;;;;;;;3.08;1.20;;;21.30;41.60;;;;;;6274477;28;558139;-61
2021/01/06 12:30:04;;;;;;;3.15;1.15;;;21.30;41.50;;;;;;6270275;28;20017;-58
2021/01/06 12:33:26;;;;;;;1.83;0.90;;;21.30;41.70;;;;;;6277043;28;20077;-56
2021/01/06 12:36:30;;;;;;;3.55;0.85;;;21.30;41.80;;;;;;6271524;28;20033;-57
2021/01/06 12:39:36;;;;;;;2.40;1.02;;;21.30;41.80;;;;;;6272948;28;20039;-57
2021/01/06 12:42:48;;;;;;;1.30;0.90;;;21.30;41.80;;;;;;6275457;28;20012;-58
2021/01/06 12:46:01;;;;;;;1.55;0.98;;;21.20;41.60;;;;;;6253356;28;20025;-60
2021/01/06 12:49:13;;;;;;;3.10;1.10;;;21.20;41.90;;;;;;6271426;28;20524;-59
2021/01/06 12:52:24;;;;;;;2.58;1.13;;;21.20;41.90;;;;;;6291953;28;20110;-61
2021/01/06 12:55:34;;;;;;;1.80;0.93;;;21.20;41.90;;;;;;6268946;28;20570;-59
2021/01/06 12:58:43;;;;;;;5.05;1.08;;;21.30;42.10;;;;;;6278298;28;20146;-56
2021/01/06 13:01:58;;;;;;;2.83;1.10;;;21.20;42.00;;;;;;6277515;28;20086;-60
2021/01/06 13:05:24;;;;;;;1.75;1.10;;;21.20;42.00;;;;;;6271632;28;20131;-59
2021/01/06 13:08:35;;;;;;;1.70;0.77;;;21.20;41.80;;;;;;6277098;28;20025;-58
2021/01/06 13:11:41;;;;;;;1.48;0.80;;;21.20;41.60;;;;;;6276415;28;20036;-57
2021/01/06 13:14:44;;;;;;;;;;;21.20;41.80;;;;;;6276568;28;20021;-57
2021/01/06 13:17:56;;;;;;;1.23;0.85;;;21.20;41.70;;;;;;6276944;28;20559;-59
2021/01/06 13:21:20;;;;;;;2.28;0.90;;;21.20;41.70;;;;;;6276931;28;20506;-57
2021/01/06 13:24:28;;;;;;;1.90;1.05;;;21.20;41.60;;;;;;6275662;28;20036;-59
2021/01/06 13:27:50;;;;;;;2.05;1.00;;;21.30;41.70;;;;;;6275969;28;20480;-57
2021/01/06 13:31:28;;;;;;;2.17;0.90;;;21.30;41.70;;;;;;6276793;28;20031;-58
2021/01/06 13:34:46;;;;;;;1.77;0.80;;;21.30;41.60;;;;;;6276245;28;20466;-55
2021/01/06 13:37:48;;;;;;;2.03;0.80;;;21.30;42.50;;;;;;6276837;28;20037;-55
2021/01/06 13:40:50;;;;;;;2.22;0.80;;;21.30;41.70;;;;;;6293407;28;20016;-55
2021/01/06 13:44:15;;;;;;;2.75;1.00;;;21.30;41.70;;;;;;6279650;28;20048;-61
2021/01/06 13:47:23;;;;;;;1.60;0.85;;;21.30;41.70;;;;;;6252041;28;20017;-60
2021/01/06 13:50:58;;;;;;;1.33;0.90;;;21.30;41.80;;;;;;6259241;28;20035;-58
2021/01/06 13:54:18;;;;;;;1.30;0.85;;;21.30;41.70;;;;;;6243442;28;20036;-58
2021/01/06 13:57:41;;;;;;;1.20;0.90;;;21.30;41.80;;;;;;6275200;28;20043;-58
2021/01/06 14:01:04;;;;;;;1.83;1.10;;;21.30;41.70;;;;;;6275756;28;20103;-57
2021/01/06 14:04:13;;;;;;;1.63;0.95;;;21.30;41.90;;;;;;6275125;28;20012;-64
2021/01/06 14:07:26;;;;;;;4.20;1.17;;;21.30;41.70;;;;;;6265569;28;20039;-58
2021/01/06 14:10:38;;;;;;;3.92;1.00;;;21.20;41.10;;;;;;6265261;28;20028;-60
2021/01/06 14:14:17;;;;;;;4.15;1.10;;;21.30;40.60;;;;;;6267855;28;20017;-58
2021/01/06 14:17:37;;;;;;;6.38;1.33;;;21.40;40.80;;;;;;6229703;28;20041;-63
2021/01/06 14:20:54;;;;;;;8.75;1.08;;;21.40;40.80;;;;;;6284707;28;20142;-61
2021/01/06 14:24:01;;;;;;;6.43;1.42;;;21.50;41.10;;;;;;6269594;28;20101;-55
2021/01/06 14:27:05;;;;;;;9.45;1.00;;;21.60;41.10;;;;;;6275961;28;20119;-58
2021/01/06 14:30:19;;;;;;;7.47;0.90;;;21.60;41.20;;;;;;6273999;28;20017;-53
2021/01/06 14:33:50;;;;;;;3.15;1.48;;;21.60;41.60;;;;;;6273945;28;20025;-55
2021/01/06 14:37:19;;;;;;;7.07;1.50;;;21.70;42.30;;;;;;6269051;28;20027;-48
2021/01/06 14:40:26;;;;;;;10.57;1.33;;;21.70;42.60;;;;;;6258742;28;20109;-48
2021/01/06 14:43:49;;;;;;;5.47;1.13;;;21.80;42.10;;;;;;6278632;28;20027;-55
2021/01/06 14:46:56;;;;;;;5.13;1.20;;;21.80;41.70;;;;;;6278065;28;20094;-53
2021/01/06 14:50:04;;;;;;;6.72;1.00;;;21.80;42.10;;;;;;6273840;28;20024;-52
2021/01/06 14:53:07;;;;;;;7.70;1.05;;;21.80;42.50;;;;;;6261186;28;20120;-50
2021/01/06 14:56:15;;;;;;;3.10;1.13;;;21.90;41.50;;;;;;6258506;28;20029;-50
2021/01/06 14:59:40;;;;;;;3.17;1.08;;;21.90;42.50;;;;;;6263993;28;20386;-54
2021/01/06 15:02:44;;;;;;;2.80;1.13;;;21.90;42.60;;;;;;6269314;28;20389;-49
2021/01/06 15:05:56;;;;;;;2.40;1.05;;;21.90;42.10;;;;;;6285072;28;20077;-49
2021/01/06 15:09:13;;;;;;;4.85;1.20;;;21.90;42.40;;;;;;6275815;28;20505;-49
2021/01/06 15:12:48;;;;;;;3.88;0.98;;;21.90;42.00;;;;;;6271386;28;20029;-49
2021/01/06 15:16:05;;;;;;;2.22;0.75;;;21.90;42.00;;;;;;6272837;28;20031;-54
2021/01/06 15:19:24;;;;;;;3.00;1.08;;;21.90;42.70;;;;;;6272584;28;20085;-55
2021/01/06 15:22:32;;;;;;;3.25;1.10;;;21.90;42.50;;;;;;6292814;28;20079;-52
2021/01/06 15:25:47;;;;;;;2.13;1.00;;;21.90;42.60;;;;;;6285264;28;20044;-53
2021/01/06 15:28:50;;;;;;;1.98;0.80;;;21.90;42.40;;;;;;6277300;28;20040;-49
2021/01/06 15:32:23;;;;;;;2.33;1.10;;;21.90;42.50;;;;;;6277021;28;20107;-55
2021/01/06 15:35:29;;;;;;;1.95;0.88;;;21.90;42.30;;;;;;6266155;28;20083;-53
2021/01/06 15:38:30;;;;;;;2.03;0.77;;;21.80;42.10;;;;;;6269722;28;20375;-53
2021/01/06 15:41:32;;;;;;;1.63;0.77;;;21.80;42.20;;;;;;6277253;28;20021;-51
2021/01/06 15:44:38;;;;;;;1.40;0.80;;;21.80;42.10;;;;;;6269097;28;20029;-51
2021/01/06 15:47:46;;;;;;;2.55;1.10;;;21.80;42.20;;;;;;6273974;28;20055;-51
2021/01/06 15:51:03;;;;;;;1.45;0.90;;;21.80;42.10;;;;;;6277145;28;20564;-48
2021/01/06 15:54:12;;;;;;;0.63;0.55;;;21.80;42.20;;;;;;6278027;28;20537;-52
2021/01/06 15:57:16;;;;;;;4.07;0.70;;;21.70;43.40;;;;;;6278792;28;20385;-54
2021/01/06 16:00:22;;;;;;;3.30;1.00;;;21.80;41.90;;;;;;6300182;28;20251;-53
2021/01/06 16:03:24;;;;;;;17.88;0.90;;;21.90;42.50;;;;;;6271032;28;20481;-63
2021/01/06 16:06:48;;;;;;;6.05;0.98;;;21.80;42.10;;;;;;6276528;28;20029;-62
2021/01/06 16:09:49;;;;;;;7.40;1.13;;;21.80;42.10;;;;;;6258644;28;20033;-61
2021/01/06 16:12:52;;;;;;;11.27;5.28;;;21.80;42.20;;;;;;6271089;28;20033;-65
2021/01/06 16:15:59;;;;;;;7.38;3.13;;;21.80;42.10;;;;;;6286811;28;20098;-64
2021/01/06 16:19:13;;;;;;;15.23;5.00;;;21.70;42.10;;;;;;6277226;28;20028;-62
2021/01/06 16:22:25;;;;;;;9.20;4.22;;;21.80;41.40;;;;;;6274007;28;20036;-63
2021/01/06 16:25:45;;;;;;;6.85;3.22;;;21.90;41.60;;;;;;6276115;28;20746;-64
2021/01/06 16:28:46;;;;;;;6.60;2.15;;;21.50;40.70;;;;;;6273870;28;20040;-64
2021/01/06 16:32:09;;;;;;;6.25;2.92;;;21.60;40.50;;;;;;6280214;28;20170;-62